sensor_id;sensor_type;location;lat;lon;timestamp;temperature;humidity
20534;DHT22;12929;56.822;26.056;2023-07-31T00:00:55;16.80;99.90
20534;DHT22;12929;56.822;26.056;2023-07-31T00:03:23;16.80;99.90
20534;DHT22;12929;56.822;26.056;2023-07-31T00:05:50;16.90;99.90
20534;DHT22;12929;56.822;26.056;2023-07-31T00:08:18;16.90;99.90
20534;DHT22;12929;56.822;26.056;2023-07-31T00:10:45;16.90;99.90
20534;DHT22;12929;56.822;26.056;2023-07-31T00:13:13;16.80;99.90
20534;DHT22;12929;56.822;26.056;2023-07-31T00:15:41;16.70;99.90
20534;DHT22;12929;56.822;26.056;2023-07-31T00:18:09;16.90;99.90
20534;DHT22;12929;56.822;26.056;2023-07-31T00:20:36;17.00;99.90
20534;DHT22;12929;56.822;26.056;2023-07-31T00:23:04;16.90;99.90
20534;DHT22;12929;56.822;26.056;2023-07-31T00:25:31;16.70;99.90
20534;DHT22;12929;56.822;26.056;2023-07-31T00:27:59;16.40;99.90
20534;DHT22;12929;56.822;26.056;2023-07-31T00:30:27;16.40;99.90
20534;DHT22;12929;56.822;26.056;2023-07-31T00:32:55;16.60;99.90
20534;DHT22;12929;56.822;26.056;2023-07-31T00:35:22;16.70;99.90
20534;DHT22;12929;56.822;26.056;2023-07-31T00:37:51;16.70;99.90
20534;DHT22;12929;56.822;26.056;2023-07-31T00:40:19;16.70;99.90
20534;DHT22;12929;56.822;26.056;2023-07-31T00:42:47;16.80;99.90
20534;DHT22;12929;56.822;26.056;2023-07-31T00:45:15;16.90;99.90
20534;DHT22;12929;56.822;26.056;2023-07-31T00:47:42;16.90;99.90
20534;DHT22;12929;56.822;26.056;2023-07-31T00:50:10;16.90;99.90
20534;DHT22;12929;56.822;26.056;2023-07-31T00:52:38;16.80;99.90
20534;DHT22;12929;56.822;26.056;2023-07-31T00:55:06;16.70;99.90
20534;DHT22;12929;56.822;26.056;2023-07-31T00:57:34;16.80;99.90
20534;DHT22;12929;56.822;26.056;2023-07-31T01:00:04;16.80;99.90
20534;DHT22;12929;56.822;26.056;2023-07-31T01:02:32;16.90;99.90
20534;DHT22;12929;56.822;26.056;2023-07-31T01:05:01;16.80;99.90
20534;DHT22;12929;56.822;26.056;2023-07-31T01:07:36;16.80;99.90
20534;DHT22;12929;56.822;26.056;2023-07-31T01:10:16;16.70;99.90
20534;DHT22;12929;56.822;26.056;2023-07-31T01:12:48;16.50;99.90
20534;DHT22;12929;56.822;26.056;2023-07-31T01:15:17;16.40;99.90
20534;DHT22;12929;56.822;26.056;2023-07-31T01:17:45;16.50;99.90
20534;DHT22;12929;56.822;26.056;2023-07-31T01:20:24;16.50;99.90
20534;DHT22;12929;56.822;26.056;2023-07-31T01:28:19;16.00;99.90
20534;DHT22;12929;56.822;26.056;2023-07-31T01:30:49;16.10;99.90
20534;DHT22;12929;56.822;26.056;2023-07-31T01:33:17;16.00;99.90
20534;DHT22;12929;56.822;26.056;2023-07-31T01:35:45;16.10;99.90
20534;DHT22;12929;56.822;26.056;2023-07-31T01:38:14;16.20;99.90
20534;DHT22;12929;56.822;26.056;2023-07-31T01:40:42;16.20;99.90
20534;DHT22;12929;56.822;26.056;2023-07-31T01:43:10;16.30;99.90
20534;DHT22;12929;56.822;26.056;2023-07-31T01:45:37;16.30;99.90
20534;DHT22;12929;56.822;26.056;2023-07-31T01:48:05;16.30;99.90
20534;DHT22;12929;56.822;26.056;2023-07-31T01:50:32;16.30;99.90
20534;DHT22;12929;56.822;26.056;2023-07-31T01:53:00;16.20;99.90
20534;DHT22;12929;56.822;26.056;2023-07-31T01:55:27;15.90;99.90
20534;DHT22;12929;56.822;26.056;2023-07-31T01:57:55;15.60;99.90
20534;DHT22;12929;56.822;26.056;2023-07-31T02:00:22;15.50;99.90
20534;DHT22;12929;56.822;26.056;2023-07-31T02:02:50;15.50;99.90
20534;DHT22;12929;56.822;26.056;2023-07-31T02:05:19;15.30;99.90
20534;DHT22;12929;56.822;26.056;2023-07-31T02:07:46;15.40;99.90
20534;DHT22;12929;56.822;26.056;2023-07-31T02:10:14;15.50;99.90
20534;DHT22;12929;56.822;26.056;2023-07-31T02:12:41;15.60;99.90
20534;DHT22;12929;56.822;26.056;2023-07-31T02:15:09;15.70;99.90
20534;DHT22;12929;56.822;26.056;2023-07-31T02:17:37;15.60;99.90
20534;DHT22;12929;56.822;26.056;2023-07-31T02:20:05;15.80;99.90
20534;DHT22;12929;56.822;26.056;2023-07-31T02:22:33;15.80;99.90
20534;DHT22;12929;56.822;26.056;2023-07-31T02:25:02;15.60;99.90
20534;DHT22;12929;56.822;26.056;2023-07-31T02:27:29;15.30;99.90
20534;DHT22;12929;56.822;26.056;2023-07-31T02:29:57;15.30;99.90
20534;DHT22;12929;56.822;26.056;2023-07-31T02:32:26;15.40;99.90
20534;DHT22;12929;56.822;26.056;2023-07-31T02:34:54;15.50;99.90
20534;DHT22;12929;56.822;26.056;2023-07-31T02:37:22;15.60;99.90
20534;DHT22;12929;56.822;26.056;2023-07-31T02:39:49;15.70;99.90
20534;DHT22;12929;56.822;26.056;2023-07-31T02:42:17;15.80;99.90
20534;DHT22;12929;56.822;26.056;2023-07-31T02:44:44;15.80;99.90
20534;DHT22;12929;56.822;26.056;2023-07-31T02:47:11;15.80;99.90
20534;DHT22;12929;56.822;26.056;2023-07-31T02:49:39;15.70;99.90
20534;DHT22;12929;56.822;26.056;2023-07-31T02:52:07;15.80;99.90
20534;DHT22;12929;56.822;26.056;2023-07-31T02:54:34;15.80;99.90
20534;DHT22;12929;56.822;26.056;2023-07-31T02:57:02;15.80;99.90
20534;DHT22;12929;56.822;26.056;2023-07-31T02:59:29;15.80;99.90
20534;DHT22;12929;56.822;26.056;2023-07-31T03:01:57;15.70;99.90
20534;DHT22;12929;56.822;26.056;2023-07-31T03:04:25;15.70;99.90
20534;DHT22;12929;56.822;26.056;2023-07-31T03:06:53;15.50;99.90
20534;DHT22;12929;56.822;26.056;2023-07-31T03:09:20;15.40;99.90
20534;DHT22;12929;56.822;26.056;2023-07-31T03:11:48;15.40;99.90
20534;DHT22;12929;56.822;26.056;2023-07-31T03:14:16;15.50;99.90
20534;DHT22;12929;56.822;26.056;2023-07-31T03:16:44;15.60;99.90
20534;DHT22;12929;56.822;26.056;2023-07-31T03:19:11;15.70;99.90
20534;DHT22;12929;56.822;26.056;2023-07-31T03:21:39;15.80;99.90
20534;DHT22;12929;56.822;26.056;2023-07-31T03:24:06;15.80;99.90
20534;DHT22;12929;56.822;26.056;2023-07-31T03:26:34;15.90;99.90
20534;DHT22;12929;56.822;26.056;2023-07-31T03:29:04;15.80;99.90
20534;DHT22;12929;56.822;26.056;2023-07-31T03:31:31;15.50;99.90
20534;DHT22;12929;56.822;26.056;2023-07-31T03:34:00;15.10;99.90
20534;DHT22;12929;56.822;26.056;2023-07-31T03:36:27;15.20;99.90
20534;DHT22;12929;56.822;26.056;2023-07-31T03:38:55;15.40;99.90
20534;DHT22;12929;56.822;26.056;2023-07-31T03:41:23;15.50;99.90
20534;DHT22;12929;56.822;26.056;2023-07-31T03:43:51;15.40;99.90
20534;DHT22;12929;56.822;26.056;2023-07-31T03:46:19;15.40;99.90
20534;DHT22;12929;56.822;26.056;2023-07-31T03:48:48;15.40;99.90
20534;DHT22;12929;56.822;26.056;2023-07-31T03:51:16;15.30;99.90
20534;DHT22;12929;56.822;26.056;2023-07-31T03:53:45;15.50;99.90
20534;DHT22;12929;56.822;26.056;2023-07-31T03:56:13;15.60;99.90
20534;DHT22;12929;56.822;26.056;2023-07-31T03:58:41;15.70;99.90
20534;DHT22;12929;56.822;26.056;2023-07-31T04:01:09;15.70;99.90
20534;DHT22;12929;56.822;26.056;2023-07-31T04:03:37;15.80;99.90
20534;DHT22;12929;56.822;26.056;2023-07-31T04:06:05;15.70;99.90
20534;DHT22;12929;56.822;26.056;2023-07-31T04:08:34;15.70;99.90
20534;DHT22;12929;56.822;26.056;2023-07-31T04:11:02;15.60;99.90
20534;DHT22;12929;56.822;26.056;2023-07-31T04:13:30;15.40;99.90
20534;DHT22;12929;56.822;26.056;2023-07-31T04:15:57;15.50;99.90
20534;DHT22;12929;56.822;26.056;2023-07-31T04:18:25;15.50;99.90
20534;DHT22;12929;56.822;26.056;2023-07-31T04:20:53;15.50;99.90
20534;DHT22;12929;56.822;26.056;2023-07-31T04:23:21;15.50;99.90
20534;DHT22;12929;56.822;26.056;2023-07-31T04:25:49;15.40;99.90
20534;DHT22;12929;56.822;26.056;2023-07-31T04:28:17;15.30;99.90
20534;DHT22;12929;56.822;26.056;2023-07-31T04:30:47;15.30;99.90
20534;DHT22;12929;56.822;26.056;2023-07-31T04:33:16;15.30;99.90
20534;DHT22;12929;56.822;26.056;2023-07-31T04:35:53;15.40;99.90
20534;DHT22;12929;56.822;26.056;2023-07-31T04:38:21;15.40;99.90
20534;DHT22;12929;56.822;26.056;2023-07-31T04:40:49;15.50;99.90
20534;DHT22;12929;56.822;26.056;2023-07-31T04:43:17;15.50;99.90
20534;DHT22;12929;56.822;26.056;2023-07-31T04:45:48;15.40;99.90
20534;DHT22;12929;56.822;26.056;2023-07-31T04:48:17;15.40;99.90
20534;DHT22;12929;56.822;26.056;2023-07-31T04:50:44;15.50;99.90
20534;DHT22;12929;56.822;26.056;2023-07-31T04:53:12;15.50;99.90
20534;DHT22;12929;56.822;26.056;2023-07-31T04:55:42;15.40;99.90
20534;DHT22;12929;56.822;26.056;2023-07-31T04:58:14;15.30;99.90
20534;DHT22;12929;56.822;26.056;2023-07-31T05:00:42;15.40;99.90
20534;DHT22;12929;56.822;26.056;2023-07-31T05:03:09;15.30;99.90
20534;DHT22;12929;56.822;26.056;2023-07-31T05:05:38;15.30;99.90
20534;DHT22;12929;56.822;26.056;2023-07-31T05:08:06;15.40;99.90
20534;DHT22;12929;56.822;26.056;2023-07-31T05:10:33;15.50;99.90
20534;DHT22;12929;56.822;26.056;2023-07-31T05:13:01;15.30;99.90
20534;DHT22;12929;56.822;26.056;2023-07-31T05:15:29;15.20;99.90
20534;DHT22;12929;56.822;26.056;2023-07-31T05:17:56;15.20;99.90
20534;DHT22;12929;56.822;26.056;2023-07-31T05:20:24;15.20;99.90
20534;DHT22;12929;56.822;26.056;2023-07-31T05:22:51;15.20;99.90
20534;DHT22;12929;56.822;26.056;2023-07-31T05:25:19;15.30;99.90
20534;DHT22;12929;56.822;26.056;2023-07-31T05:27:47;15.40;99.90
20534;DHT22;12929;56.822;26.056;2023-07-31T05:30:14;15.50;99.90
20534;DHT22;12929;56.822;26.056;2023-07-31T05:32:42;15.50;99.90
20534;DHT22;12929;56.822;26.056;2023-07-31T05:35:09;15.50;99.90
20534;DHT22;12929;56.822;26.056;2023-07-31T05:37:37;15.50;99.90
20534;DHT22;12929;56.822;26.056;2023-07-31T05:40:05;15.60;99.90
20534;DHT22;12929;56.822;26.056;2023-07-31T05:42:32;15.70;99.90
20534;DHT22;12929;56.822;26.056;2023-07-31T05:45:00;15.80;99.90
20534;DHT22;12929;56.822;26.056;2023-07-31T05:47:28;15.80;99.90
20534;DHT22;12929;56.822;26.056;2023-07-31T05:49:55;15.80;99.90
20534;DHT22;12929;56.822;26.056;2023-07-31T05:52:23;15.70;99.90
20534;DHT22;12929;56.822;26.056;2023-07-31T05:54:50;15.70;99.90
20534;DHT22;12929;56.822;26.056;2023-07-31T05:57:18;15.70;99.90
20534;DHT22;12929;56.822;26.056;2023-07-31T05:59:45;15.50;99.90
20534;DHT22;12929;56.822;26.056;2023-07-31T06:02:13;15.40;99.90
20534;DHT22;12929;56.822;26.056;2023-07-31T06:04:40;15.50;99.90
20534;DHT22;12929;56.822;26.056;2023-07-31T06:07:08;15.50;99.90
20534;DHT22;12929;56.822;26.056;2023-07-31T06:09:35;15.40;99.90
20534;DHT22;12929;56.822;26.056;2023-07-31T06:12:03;15.40;99.90
20534;DHT22;12929;56.822;26.056;2023-07-31T06:14:31;15.50;99.90
20534;DHT22;12929;56.822;26.056;2023-07-31T06:16:58;15.60;99.90
20534;DHT22;12929;56.822;26.056;2023-07-31T06:19:26;15.40;99.90
20534;DHT22;12929;56.822;26.056;2023-07-31T06:21:53;15.30;99.90
20534;DHT22;12929;56.822;26.056;2023-07-31T06:24:21;15.30;99.90
20534;DHT22;12929;56.822;26.056;2023-07-31T06:26:49;15.40;99.90
20534;DHT22;12929;56.822;26.056;2023-07-31T06:29:18;15.50;99.90
20534;DHT22;12929;56.822;26.056;2023-07-31T06:31:45;15.40;99.90
20534;DHT22;12929;56.822;26.056;2023-07-31T06:34:13;15.50;99.90
20534;DHT22;12929;56.822;26.056;2023-07-31T06:36:40;15.50;99.90
20534;DHT22;12929;56.822;26.056;2023-07-31T06:39:08;15.40;99.90
20534;DHT22;12929;56.822;26.056;2023-07-31T06:41:36;15.30;99.90
20534;DHT22;12929;56.822;26.056;2023-07-31T06:44:05;15.30;99.90
20534;DHT22;12929;56.822;26.056;2023-07-31T06:46:33;15.30;99.90
20534;DHT22;12929;56.822;26.056;2023-07-31T06:49:01;15.30;99.90
20534;DHT22;12929;56.822;26.056;2023-07-31T06:51:29;15.40;99.90
20534;DHT22;12929;56.822;26.056;2023-07-31T06:53:58;15.40;99.90
20534;DHT22;12929;56.822;26.056;2023-07-31T06:56:26;15.50;99.90
20534;DHT22;12929;56.822;26.056;2023-07-31T06:58:55;15.40;99.90
20534;DHT22;12929;56.822;26.056;2023-07-31T07:01:23;15.50;99.90
20534;DHT22;12929;56.822;26.056;2023-07-31T07:03:50;15.40;99.90
20534;DHT22;12929;56.822;26.056;2023-07-31T07:06:18;15.50;99.90
20534;DHT22;12929;56.822;26.056;2023-07-31T07:08:45;15.50;99.90
20534;DHT22;12929;56.822;26.056;2023-07-31T07:11:13;15.50;99.90
20534;DHT22;12929;56.822;26.056;2023-07-31T07:13:40;15.50;99.90
20534;DHT22;12929;56.822;26.056;2023-07-31T07:16:08;15.50;99.90
20534;DHT22;12929;56.822;26.056;2023-07-31T07:18:37;15.50;99.90
20534;DHT22;12929;56.822;26.056;2023-07-31T07:21:16;15.60;99.90
20534;DHT22;12929;56.822;26.056;2023-07-31T07:23:45;15.70;99.90
20534;DHT22;12929;56.822;26.056;2023-07-31T07:26:12;15.60;99.90
20534;DHT22;12929;56.822;26.056;2023-07-31T07:28:40;15.60;99.90
20534;DHT22;12929;56.822;26.056;2023-07-31T07:31:10;15.70;99.90
20534;DHT22;12929;56.822;26.056;2023-07-31T07:33:38;15.80;99.90
20534;DHT22;12929;56.822;26.056;2023-07-31T07:36:17;15.80;99.90
20534;DHT22;12929;56.822;26.056;2023-07-31T07:38:44;15.90;99.90
20534;DHT22;12929;56.822;26.056;2023-07-31T07:41:12;15.80;99.90
20534;DHT22;12929;56.822;26.056;2023-07-31T07:43:43;15.80;99.90
20534;DHT22;12929;56.822;26.056;2023-07-31T07:46:10;16.00;99.90
20534;DHT22;12929;56.822;26.056;2023-07-31T07:48:38;16.00;99.90
20534;DHT22;12929;56.822;26.056;2023-07-31T07:51:08;16.00;99.90
20534;DHT22;12929;56.822;26.056;2023-07-31T07:53:35;16.00;99.90
20534;DHT22;12929;56.822;26.056;2023-07-31T07:56:03;16.00;99.90
20534;DHT22;12929;56.822;26.056;2023-07-31T07:58:33;16.00;99.90
20534;DHT22;12929;56.822;26.056;2023-07-31T08:01:02;15.90;99.90
20534;DHT22;12929;56.822;26.056;2023-07-31T08:03:32;16.00;99.90
20534;DHT22;12929;56.822;26.056;2023-07-31T08:06:00;16.10;99.90
20534;DHT22;12929;56.822;26.056;2023-07-31T08:08:29;16.20;99.90
20534;DHT22;12929;56.822;26.056;2023-07-31T08:10:57;16.30;99.90
20534;DHT22;12929;56.822;26.056;2023-07-31T08:13:26;16.30;99.90
20534;DHT22;12929;56.822;26.056;2023-07-31T08:15:55;16.30;99.90
20534;DHT22;12929;56.822;26.056;2023-07-31T08:18:22;16.30;99.90
20534;DHT22;12929;56.822;26.056;2023-07-31T08:20:50;16.20;99.90
20534;DHT22;12929;56.822;26.056;2023-07-31T08:23:18;16.30;99.90
20534;DHT22;12929;56.822;26.056;2023-07-31T08:25:45;16.40;99.90
20534;DHT22;12929;56.822;26.056;2023-07-31T08:28:15;16.40;99.90
20534;DHT22;12929;56.822;26.056;2023-07-31T08:30:43;16.40;99.90
20534;DHT22;12929;56.822;26.056;2023-07-31T08:33:11;16.40;99.90
20534;DHT22;12929;56.822;26.056;2023-07-31T08:35:38;16.40;99.90
20534;DHT22;12929;56.822;26.056;2023-07-31T08:38:06;16.50;99.90
20534;DHT22;12929;56.822;26.056;2023-07-31T08:40:37;16.40;99.90
20534;DHT22;12929;56.822;26.056;2023-07-31T08:43:06;16.50;99.90
20534;DHT22;12929;56.822;26.056;2023-07-31T08:45:34;16.70;99.90
20534;DHT22;12929;56.822;26.056;2023-07-31T08:48:03;16.80;99.90
20534;DHT22;12929;56.822;26.056;2023-07-31T08:50:31;16.80;99.90
20534;DHT22;12929;56.822;26.056;2023-07-31T08:53:00;16.90;99.90
20534;DHT22;12929;56.822;26.056;2023-07-31T08:55:29;16.90;99.90
20534;DHT22;12929;56.822;26.056;2023-07-31T08:57:59;17.00;99.90
20534;DHT22;12929;56.822;26.056;2023-07-31T09:00:27;17.10;99.90
20534;DHT22;12929;56.822;26.056;2023-07-31T09:03:03;17.10;99.90
20534;DHT22;12929;56.822;26.056;2023-07-31T09:05:36;17.20;99.90
20534;DHT22;12929;56.822;26.056;2023-07-31T09:08:09;17.20;99.90
20534;DHT22;12929;56.822;26.056;2023-07-31T09:10:43;17.50;99.90
20534;DHT22;12929;56.822;26.056;2023-07-31T09:13:13;17.50;99.90
20534;DHT22;12929;56.822;26.056;2023-07-31T09:15:47;17.40;99.90
20534;DHT22;12929;56.822;26.056;2023-07-31T09:18:17;17.30;99.90
20534;DHT22;12929;56.822;26.056;2023-07-31T09:21:06;17.30;99.90
20534;DHT22;12929;56.822;26.056;2023-07-31T09:23:45;17.20;99.90
20534;DHT22;12929;56.822;26.056;2023-07-31T09:26:29;17.10;99.90
20534;DHT22;12929;56.822;26.056;2023-07-31T09:29:04;17.30;99.90
20534;DHT22;12929;56.822;26.056;2023-07-31T09:31:42;17.40;99.90
20534;DHT22;12929;56.822;26.056;2023-07-31T09:34:11;17.50;99.90
20534;DHT22;12929;56.822;26.056;2023-07-31T09:36:47;17.90;99.90
20534;DHT22;12929;56.822;26.056;2023-07-31T09:39:17;18.20;99.90
20534;DHT22;12929;56.822;26.056;2023-07-31T09:41:55;18.30;99.90
20534;DHT22;12929;56.822;26.056;2023-07-31T09:44:38;18.40;99.90
20534;DHT22;12929;56.822;26.056;2023-07-31T09:47:21;18.50;99.90
20534;DHT22;12929;56.822;26.056;2023-07-31T09:49:52;18.60;99.90
20534;DHT22;12929;56.822;26.056;2023-07-31T09:52:27;18.70;99.90
20534;DHT22;12929;56.822;26.056;2023-07-31T09:54:56;18.70;99.90
20534;DHT22;12929;56.822;26.056;2023-07-31T09:57:30;18.70;99.90
20534;DHT22;12929;56.822;26.056;2023-07-31T09:59:59;18.60;99.90
20534;DHT22;12929;56.822;26.056;2023-07-31T10:02:38;18.50;99.90
20534;DHT22;12929;56.822;26.056;2023-07-31T10:05:06;18.70;99.90
20534;DHT22;12929;56.822;26.056;2023-07-31T10:07:39;18.80;99.90
20534;DHT22;12929;56.822;26.056;2023-07-31T10:10:09;19.00;99.90
20534;DHT22;12929;56.822;26.056;2023-07-31T10:12:40;19.40;99.90
20534;DHT22;12929;56.822;26.056;2023-07-31T10:15:10;19.50;99.90
20534;DHT22;12929;56.822;26.056;2023-07-31T10:17:47;19.50;99.90
20534;DHT22;12929;56.822;26.056;2023-07-31T10:20:16;19.40;99.90
20534;DHT22;12929;56.822;26.056;2023-07-31T10:22:44;19.20;99.90
20534;DHT22;12929;56.822;26.056;2023-07-31T10:25:16;19.10;99.90
20534;DHT22;12929;56.822;26.056;2023-07-31T10:27:47;19.20;99.90
20534;DHT22;12929;56.822;26.056;2023-07-31T10:30:17;19.20;99.90
20534;DHT22;12929;56.822;26.056;2023-07-31T10:32:47;19.10;99.90
20534;DHT22;12929;56.822;26.056;2023-07-31T10:35:18;19.30;99.90
20534;DHT22;12929;56.822;26.056;2023-07-31T10:37:46;19.40;99.90
20534;DHT22;12929;56.822;26.056;2023-07-31T10:40:28;19.50;99.90
20534;DHT22;12929;56.822;26.056;2023-07-31T10:42:56;19.60;99.90
20534;DHT22;12929;56.822;26.056;2023-07-31T10:45:35;19.80;99.90
20534;DHT22;12929;56.822;26.056;2023-07-31T10:48:13;19.70;99.90
20534;DHT22;12929;56.822;26.056;2023-07-31T10:50:52;19.90;99.90
20534;DHT22;12929;56.822;26.056;2023-07-31T10:53:28;19.80;99.90
20534;DHT22;12929;56.822;26.056;2023-07-31T10:56:03;20.10;99.90
20534;DHT22;12929;56.822;26.056;2023-07-31T10:58:35;20.20;99.90
20534;DHT22;12929;56.822;26.056;2023-07-31T11:01:09;20.30;99.90
20534;DHT22;12929;56.822;26.056;2023-07-31T11:03:45;20.50;99.90
20534;DHT22;12929;56.822;26.056;2023-07-31T11:06:18;20.60;99.90
20534;DHT22;12929;56.822;26.056;2023-07-31T11:08:47;20.50;99.90
20534;DHT22;12929;56.822;26.056;2023-07-31T11:11:20;20.20;99.90
20534;DHT22;12929;56.822;26.056;2023-07-31T11:13:52;20.10;99.90
20534;DHT22;12929;56.822;26.056;2023-07-31T11:16:22;19.80;99.90
20534;DHT22;12929;56.822;26.056;2023-07-31T11:18:52;19.80;99.90
20534;DHT22;12929;56.822;26.056;2023-07-31T11:21:23;19.80;99.90
20534;DHT22;12929;56.822;26.056;2023-07-31T11:23:53;19.80;99.90
20534;DHT22;12929;56.822;26.056;2023-07-31T11:26:28;19.90;99.90
20534;DHT22;12929;56.822;26.056;2023-07-31T11:28:56;19.90;99.90
20534;DHT22;12929;56.822;26.056;2023-07-31T11:31:24;19.90;99.90
20534;DHT22;12929;56.822;26.056;2023-07-31T11:34:04;20.00;99.90
20534;DHT22;12929;56.822;26.056;2023-07-31T11:36:32;20.10;99.90
20534;DHT22;12929;56.822;26.056;2023-07-31T11:39:10;20.20;99.90
20534;DHT22;12929;56.822;26.056;2023-07-31T11:41:40;20.30;99.90
20534;DHT22;12929;56.822;26.056;2023-07-31T11:44:08;20.20;99.90
20534;DHT22;12929;56.822;26.056;2023-07-31T11:46:52;20.20;99.90
20534;DHT22;12929;56.822;26.056;2023-07-31T11:49:21;20.10;99.90
20534;DHT22;12929;56.822;26.056;2023-07-31T11:51:49;20.00;99.90
20534;DHT22;12929;56.822;26.056;2023-07-31T11:54:17;19.90;99.90
20534;DHT22;12929;56.822;26.056;2023-07-31T11:56:45;20.00;99.90
20534;DHT22;12929;56.822;26.056;2023-07-31T11:59:13;20.00;99.90
20534;DHT22;12929;56.822;26.056;2023-07-31T12:01:41;19.70;99.90
20534;DHT22;12929;56.822;26.056;2023-07-31T12:04:09;19.10;99.90
20534;DHT22;12929;56.822;26.056;2023-07-31T12:06:37;18.90;99.90
20534;DHT22;12929;56.822;26.056;2023-07-31T12:09:08;18.60;99.90
20534;DHT22;12929;56.822;26.056;2023-07-31T12:11:46;18.50;99.90
20534;DHT22;12929;56.822;26.056;2023-07-31T12:14:26;18.50;99.90
20534;DHT22;12929;56.822;26.056;2023-07-31T12:17:00;18.40;99.90
20534;DHT22;12929;56.822;26.056;2023-07-31T12:19:32;18.20;99.90
20534;DHT22;12929;56.822;26.056;2023-07-31T12:22:10;17.80;99.90
20534;DHT22;12929;56.822;26.056;2023-07-31T12:24:43;17.80;99.90
20534;DHT22;12929;56.822;26.056;2023-07-31T12:27:33;17.40;99.90
20534;DHT22;12929;56.822;26.056;2023-07-31T12:30:05;17.30;99.90
20534;DHT22;12929;56.822;26.056;2023-07-31T12:32:49;17.40;99.90
20534;DHT22;12929;56.822;26.056;2023-07-31T12:35:23;17.20;99.90
20534;DHT22;12929;56.822;26.056;2023-07-31T12:38:01;17.30;99.90
20534;DHT22;12929;56.822;26.056;2023-07-31T12:40:29;17.40;99.90
20534;DHT22;12929;56.822;26.056;2023-07-31T12:43:02;17.30;99.90
20534;DHT22;12929;56.822;26.056;2023-07-31T12:45:33;17.60;99.90
20534;DHT22;12929;56.822;26.056;2023-07-31T12:48:01;17.50;99.90
20534;DHT22;12929;56.822;26.056;2023-07-31T12:50:29;17.60;99.90
20534;DHT22;12929;56.822;26.056;2023-07-31T12:52:57;17.70;99.90
20534;DHT22;12929;56.822;26.056;2023-07-31T12:55:24;17.80;99.90
20534;DHT22;12929;56.822;26.056;2023-07-31T12:57:52;17.80;99.90
20534;DHT22;12929;56.822;26.056;2023-07-31T13:00:21;17.70;99.90
20534;DHT22;12929;56.822;26.056;2023-07-31T13:02:49;17.70;99.90
20534;DHT22;12929;56.822;26.056;2023-07-31T13:05:17;17.50;99.90
20534;DHT22;12929;56.822;26.056;2023-07-31T13:07:47;17.30;99.90
20534;DHT22;12929;56.822;26.056;2023-07-31T13:10:19;17.30;99.90
20534;DHT22;12929;56.822;26.056;2023-07-31T13:12:46;17.20;99.90
20534;DHT22;12929;56.822;26.056;2023-07-31T13:15:15;17.20;99.90
20534;DHT22;12929;56.822;26.056;2023-07-31T13:17:45;17.20;99.90
20534;DHT22;12929;56.822;26.056;2023-07-31T13:20:14;17.30;99.90
20534;DHT22;12929;56.822;26.056;2023-07-31T13:22:44;17.20;99.90
20534;DHT22;12929;56.822;26.056;2023-07-31T13:25:16;17.20;99.90
20534;DHT22;12929;56.822;26.056;2023-07-31T13:27:48;17.20;99.90
20534;DHT22;12929;56.822;26.056;2023-07-31T13:30:17;17.40;99.90
20534;DHT22;12929;56.822;26.056;2023-07-31T13:32:46;17.40;99.90
20534;DHT22;12929;56.822;26.056;2023-07-31T13:35:16;17.60;99.90
20534;DHT22;12929;56.822;26.056;2023-07-31T13:37:46;17.60;99.90
20534;DHT22;12929;56.822;26.056;2023-07-31T13:40:15;17.70;99.90
20534;DHT22;12929;56.822;26.056;2023-07-31T13:42:46;17.90;99.90
20534;DHT22;12929;56.822;26.056;2023-07-31T13:45:15;18.10;99.90
20534;DHT22;12929;56.822;26.056;2023-07-31T13:47:52;18.40;99.90
20534;DHT22;12929;56.822;26.056;2023-07-31T13:50:28;18.80;99.90
20534;DHT22;12929;56.822;26.056;2023-07-31T13:53:09;19.20;99.90
20534;DHT22;12929;56.822;26.056;2023-07-31T13:55:42;19.50;99.90
20534;DHT22;12929;56.822;26.056;2023-07-31T13:58:22;19.50;99.90
20534;DHT22;12929;56.822;26.056;2023-07-31T14:00:56;19.70;99.90
20534;DHT22;12929;56.822;26.056;2023-07-31T14:03:27;19.80;99.90
20534;DHT22;12929;56.822;26.056;2023-07-31T14:05:59;19.80;99.90
20534;DHT22;12929;56.822;26.056;2023-07-31T14:08:32;20.00;99.90
20534;DHT22;12929;56.822;26.056;2023-07-31T14:11:10;20.00;99.90
20534;DHT22;12929;56.822;26.056;2023-07-31T14:13:42;20.00;99.90
20534;DHT22;12929;56.822;26.056;2023-07-31T14:16:14;19.90;99.90
20534;DHT22;12929;56.822;26.056;2023-07-31T14:18:49;20.00;99.90
20534;DHT22;12929;56.822;26.056;2023-07-31T14:21:21;19.80;99.90
20534;DHT22;12929;56.822;26.056;2023-07-31T14:23:50;19.70;99.90
20534;DHT22;12929;56.822;26.056;2023-07-31T14:26:21;19.50;99.90
20534;DHT22;12929;56.822;26.056;2023-07-31T14:28:50;19.40;99.90
20534;DHT22;12929;56.822;26.056;2023-07-31T14:31:22;19.20;99.90
20534;DHT22;12929;56.822;26.056;2023-07-31T14:34:07;19.20;99.90
20534;DHT22;12929;56.822;26.056;2023-07-31T14:36:39;19.40;99.90
20534;DHT22;12929;56.822;26.056;2023-07-31T14:39:06;19.50;99.90
20534;DHT22;12929;56.822;26.056;2023-07-31T14:41:35;19.40;99.90
20534;DHT22;12929;56.822;26.056;2023-07-31T14:44:12;19.40;99.90
20534;DHT22;12929;56.822;26.056;2023-07-31T14:46:40;19.40;99.90
20534;DHT22;12929;56.822;26.056;2023-07-31T14:49:10;19.40;99.90
20534;DHT22;12929;56.822;26.056;2023-07-31T14:51:38;19.50;99.90
20534;DHT22;12929;56.822;26.056;2023-07-31T14:54:05;19.70;99.90
20534;DHT22;12929;56.822;26.056;2023-07-31T14:56:33;19.90;99.90
20534;DHT22;12929;56.822;26.056;2023-07-31T14:59:00;20.10;99.90
20534;DHT22;12929;56.822;26.056;2023-07-31T15:01:28;20.30;99.90
20534;DHT22;12929;56.822;26.056;2023-07-31T15:03:55;20.10;99.90
20534;DHT22;12929;56.822;26.056;2023-07-31T15:06:23;20.00;99.90
20534;DHT22;12929;56.822;26.056;2023-07-31T15:08:52;20.10;99.90
20534;DHT22;12929;56.822;26.056;2023-07-31T15:11:21;20.00;99.90
20534;DHT22;12929;56.822;26.056;2023-07-31T15:13:50;19.80;99.90
20534;DHT22;12929;56.822;26.056;2023-07-31T15:16:19;19.80;99.90
20534;DHT22;12929;56.822;26.056;2023-07-31T15:18:48;19.80;99.90
20534;DHT22;12929;56.822;26.056;2023-07-31T15:21:17;19.90;99.90
20534;DHT22;12929;56.822;26.056;2023-07-31T15:23:45;20.00;99.90
20534;DHT22;12929;56.822;26.056;2023-07-31T15:26:13;19.90;99.90
20534;DHT22;12929;56.822;26.056;2023-07-31T15:28:41;19.80;99.90
20534;DHT22;12929;56.822;26.056;2023-07-31T15:31:11;19.50;99.90
20534;DHT22;12929;56.822;26.056;2023-07-31T15:33:39;19.50;99.90
20534;DHT22;12929;56.822;26.056;2023-07-31T15:36:07;19.50;99.90